Station info - map view · info · telemetry · weather · raw · status · beacons · messages · bulletins · browse · moving · my account
Callsign, ship name or locator: Clear       
It is possible to search using wildcards (*?) after a prefix. Example: OH*
APRS station MEEKO - show graphs
Map loading...
Mic-E message: En route
Last status: TinyTrak3 v1.1
Location: 34°36.02' N 111°51.92' W - locator DM44BO64DB - show map - static map
2.6 miles North bearing 346° from Camp Verde, Yavapai County, Arizona, United States [?]
5.4 miles Southwest bearing 246° from Lake Montezuma, Yavapai County, Arizona, United States
73.6 miles North bearing 17° from Peoria, Maricopa County, Arizona, United States
75.6 miles North bearing 14° from Glendale, Maricopa County, Arizona, United States
Last position: 2018-09-08 18:42:08 EDT (12d 19h14m ago)
2018-09-08 15:42:08 MST local time at Camp Verde, United States [?]
Altitude: 3415 ft
Course: 193°
Last path: MEEKO>ST3VPR via WA6LSE-4*,W7MOT-8*,WIDE2,qAR,KB3RRL (good)
Positions stored: 14435
Stations near current position of MEEKO - show more
callsign distance last heard - EDT      callsign distance last heard - EDT
KG7KID-61.3 miles 52°2018-09-21 13:53:00 CW45343.0 miles 186°2018-09-21 13:30:24
WA6LSE-43.8 miles 156°2018-09-21 13:47:08 CW81257.2 miles 344°2018-09-21 13:51:23
KG7KID-77.3 miles 61°2018-09-21 13:36:19 KC5DUC8.1 miles 343°2018-09-21 13:44:01
FGZSVRLIA8.7 miles 151°2018-08-24 17:49:34 FGZSVRCnA9.0 miles 358°2018-09-01 09:20:18
SQUAW9.1 miles 184°2018-09-21 13:48:13 AC0MJ-99.5 miles 158°2018-09-15 13:21:23
NL7FQ-910.0 miles 328°2018-09-20 20:00:38 NL7FQ-1010.1 miles 328°2018-09-21 13:34:49
FGZSVRMUA10.4 miles 317°2018-08-26 18:49:48 EW144811.2 miles 302°2018-09-21 13:00:31
AC7AJ-912.4 miles 321°2018-09-21 13:54:54 N7KL-912.4 miles 127°2018-08-29 17:59:04
DW397912.5 miles 298°2018-09-21 13:52:11 N7LXX-912.5 miles 320°2018-09-21 13:42:30
DW434814.5 miles 311°2018-09-21 13:52:51 KG7KID-515.0 miles 323°2018-09-21 13:54:45
Stations which heard MEEKO directly on radio –
callsign pkts first heard - EDT last heard longest (tx => rx) longest at - EDT
W7MOT-3 1 2018-09-07 11:44:46 2018-09-07 11:44:46 DM45GA > DM33RN 118.3 miles 213° 2018-09-07 11:44:46
UBUTTE 6 2018-09-07 09:52:35 2018-09-07 10:35:16 DM57NC > DM58QN 102.3 miles 6° 2018-09-07 10:35:16
UNION 20 2018-09-07 11:21:56 2018-09-07 11:58:54 DM45QR > DM34TJ 136.1 miles 228° 2018-09-07 11:21:56
TESQUE 1 2018-09-07 10:40:30 2018-09-07 10:40:30 DM57MB > DM75CS 195.3 miles 115° 2018-09-07 10:40:30
WA6LSE-4 8 2018-09-07 11:51:44 2018-09-08 18:42:08 DM44DS > DM44BN 18.5 miles 207° 2018-09-07 11:51:44
ABAJO 11 2018-09-07 10:47:11 2018-09-07 11:14:27 DM46VA > DM57GU 132.1 miles 19° 2018-09-07 11:14:27
W7MOT-8 5 2018-09-07 11:38:48 2018-09-07 11:49:43 DM44EU > DM45EF 26.8 miles 1° 2018-09-07 11:49:43
KENDAL 4 2018-09-07 10:38:00 2018-09-07 10:49:28 DM56JT > DM67ET 110.6 miles 52° 2018-09-07 10:49:28
W7MOT-10 2 2018-09-07 11:37:49 2018-09-07 11:39:48 DM45JG > DM43HV 94.2 miles 188° 2018-09-07 11:37:49
KF6RAL-4 5 2018-09-07 10:54:08 2018-09-07 11:27:53 DM56FN > DM37NO 193.9 miles 292° 2018-09-07 10:54:08
RBERRY 1 2018-09-07 10:49:10 2018-09-07 10:49:10 DM56HR > DM58VH 126.4 miles 30° 2018-09-07 10:49:10
METHOD 18 2018-09-07 09:20:29 2018-09-07 09:48:18 DM68QJ > DM68XK 34.0 miles 82° 2018-09-07 09:45:00
PARRTT 6 2018-09-07 10:36:16 2018-09-07 11:25:54 DM45OO > DM57WI 191.2 miles 50° 2018-09-07 11:25:54
WATRDG 2 2018-09-07 09:50:16 2018-09-07 09:55:09 DM68NH > DM68DJ 42.7 miles 278° 2018-09-07 09:50:16
BWMTN 8 2018-09-07 11:09:02 2018-09-07 11:58:44 DM46WC > DM35VE 132.5 miles 242° 2018-09-07 11:09:02
SKING 2 2018-09-07 09:41:14 2018-09-07 09:46:09 DM68QJ > DM68EI 55.8 miles 266° 2018-09-07 09:41:14
SHEEP 21 2018-09-07 09:34:42 2018-09-07 09:55:33 DM68UM > DM68FL 67.9 miles 267° 2018-09-07 09:34:42
N0EB 11 2018-09-07 09:19:09 2018-09-07 09:33:43 DM68WT > DM68XM 21.4 miles 162° 2018-09-07 09:19:09
KB0TUC-2 1 2018-09-07 09:32:25 2018-09-07 09:32:25 DM68WP > DM78HD 55.8 miles 131° 2018-09-07 09:32:25
KAYNTA 23 2018-09-07 10:37:15 2018-09-07 11:06:02 DM57MB > DM46VR 76.1 miles 253° 2018-09-07 10:37:15
MNARCH 12 2018-09-07 09:39:27 2018-09-07 09:59:57 DM68ID > DM68TM 57.5 miles 65° 2018-09-07 09:59:57
BADGR 1 2018-09-07 09:38:42 2018-09-07 09:38:42 DM68TL > DM79FB 60.2 miles 50° 2018-09-07 09:38:42
HARRIS 1 2018-09-07 10:41:37 2018-09-07 10:41:37 DM57MA > DM66CP 70.9 miles 111° 2018-09-07 10:41:37
KE7JVX-10 5 2018-09-07 10:33:17 2018-09-07 11:40:47 DM45ID > DM47NA 131.9 miles 11° 2018-09-07 11:40:47
WD4IXD-12 6 2018-09-07 09:17:27 2018-09-07 09:34:42 DM68VO > DM79CC 40.2 miles 34° 2018-09-07 09:34:42
KD0KNM-8 1 2018-09-07 09:27:03 2018-09-07 09:27:03 DM68WT > DM68WR 7.5 miles 176° 2018-09-07 09:27:03

Only position packets which were originated by the station are shown here. The range statistics show some extra long hops, because some digipeaters do not correctly add themselves to the digipeater path. Please check the raw packets.
About this site
This page shows real-time information collected from the Automatic Position Reporting System Internet network (APRS-IS). APRS is used by amateur (ham) radio operators to transmit real-time position information, weather data, telemetry and messages over the radio. A vehicle equipped with a GPS receiver, a VHF transmitter or HF transceiver and a small computer device called a tracker transmits it's location, speed and course in a small data packet, which is then received by a nearby iGate receiving site which forwards the packet on the Internet. Systems connected to the Internet can send information on the APRS-IS without a radio transmitter, or collect and display information transmitted anywhere in the world.
FAQ · Blog · Discussion group · Linking to aprs.fi · AIS sites · Service status · Database statistics · Advertising on aprs.fi · Technical details · API · Change log · Planned changes · Credits and thanks · Terms Of Service · iPhone/iPad APRS